Time;durP1;ratioP1;P1;durP2;ratioP2;P2;SDS_P1;SDS_P2;PMS_P1;PMS_P2;Temp;Humidity;BMP_temperature;BMP_pressure;BME280_temperature;BME280_humidity;BME280_pressure;Samples;Min_cycle;Max_cycle;Signal;HPM_P1;HPM_P2
2022/05/26 00:01:00;;;;;;;5.90;2.57;;;15.60;1.00;;;;;;5103496;27;20469;-77
2022/05/26 00:03:26;;;;;;;6.43;2.80;;;15.60;1.00;;;;;;5102471;27;20510;-77
2022/05/26 00:05:53;;;;;;;6.30;2.77;;;15.50;1.00;;;;;;5097221;27;20468;-75
2022/05/26 00:08:19;;;;;;;5.83;2.70;;;15.50;1.00;;;;;;5103207;27;20462;-75
2022/05/26 00:10:48;;;;;;;7.60;3.00;;;15.60;1.00;;;;;;5102258;27;20462;-76
2022/05/26 00:13:15;;;;;;;7.10;3.20;;;15.50;1.00;;;;;;5092528;28;20545;-75
2022/05/26 00:15:41;;;;;;;5.93;2.73;;;15.50;1.00;;;;;;5098754;27;20957;-76
2022/05/26 00:18:08;;;;;;;6.30;2.77;;;15.50;1.00;;;;;;5102258;28;20473;-76
2022/05/26 00:20:35;;;;;;;6.10;2.80;;;15.50;1.00;;;;;;5099542;27;20505;-77
2022/05/26 00:23:01;;;;;;;5.40;2.60;;;15.50;1.00;;;;;;5098779;27;20479;-75
2022/05/26 00:25:28;;;;;;;6.53;2.93;;;15.50;1.00;;;;;;5099496;28;21332;-76
2022/05/26 00:27:56;;;;;;;6.10;3.20;;;15.50;1.00;;;;;;5099501;27;20441;-76
2022/05/26 00:30:23;;;;;;;6.17;3.07;;;15.50;1.00;;;;;;5101187;27;20518;-75
2022/05/26 00:32:50;;;;;;;9.13;3.20;;;15.50;1.00;;;;;;5098253;27;20455;-75
2022/05/26 00:35:17;;;;;;;6.93;3.37;;;15.50;1.00;;;;;;5101270;27;20488;-76
2022/05/26 00:37:44;;;;;;;6.97;3.10;;;15.40;1.00;;;;;;5095847;27;20494;-76
2022/05/26 00:40:13;;;;;;;5.80;2.90;;;15.30;1.00;;;;;;5102984;27;20496;-76
2022/05/26 00:42:40;;;;;;;6.23;2.90;;;15.30;1.00;;;;;;5104633;27;20519;-76
2022/05/26 00:45:09;;;;;;;5.70;2.77;;;15.20;1.00;;;;;;5103572;27;20458;-76
2022/05/26 00:47:40;;;;;;;6.77;3.43;;;15.20;1.00;;;;;;5101198;27;20525;-76
2022/05/26 00:50:13;;;;;;;5.80;2.77;;;15.10;1.00;;;;;;5104192;27;21080;-76
2022/05/26 00:52:45;;;;;;;7.47;4.17;;;15.10;1.00;;;;;;5100470;28;20480;-77
2022/05/26 00:55:16;;;;;;;6.90;4.20;;;15.20;1.00;;;;;;5103980;27;20482;-76
2022/05/26 00:57:46;;;;;;;7.27;3.33;;;15.10;1.00;;;;;;5099941;27;20520;-76
2022/05/26 01:00:18;;;;;;;7.80;4.00;;;15.20;1.00;;;;;;5102894;27;20529;-75
2022/05/26 01:02:49;;;;;;;7.37;4.30;;;15.20;1.00;;;;;;5100153;27;20545;-75
2022/05/26 01:05:22;;;;;;;8.13;4.87;;;15.20;1.00;;;;;;5103700;27;21127;-76
2022/05/26 01:07:51;;;;;;;8.73;4.63;;;15.20;1.00;;;;;;5103366;27;21191;-76
2022/05/26 01:10:18;;;;;;;8.07;4.20;;;15.30;1.00;;;;;;5103516;27;20457;-76
2022/05/26 01:12:45;;;;;;;8.27;4.80;;;15.30;1.00;;;;;;5103648;27;20543;-75
2022/05/26 01:15:18;;;;;;;8.80;4.30;;;15.40;1.00;;;;;;5104546;27;20455;-75
2022/05/26 01:17:56;;;;;;;11.33;4.87;;;15.40;1.00;;;;;;5104901;27;20450;-76
2022/05/26 01:20:38;;;;;;;8.17;3.80;;;15.40;1.00;;;;;;5104255;27;20483;-75
2022/05/26 01:23:28;;;;;;;8.17;3.90;;;15.50;1.00;;;;;;5103118;27;20843;-75
2022/05/26 01:26:33;;;;;;;8.33;3.43;;;15.50;1.00;;;;;;5102192;27;20473;-77
2022/05/26 01:29:27;;;;;;;7.90;3.80;;;15.50;1.00;;;;;;5106005;27;20607;-74
2022/05/26 01:32:02;;;;;;;7.07;3.83;;;15.50;1.00;;;;;;5104371;27;20504;-76
2022/05/26 01:34:34;;;;;;;6.33;3.10;;;15.50;1.00;;;;;;5104004;27;20466;-76
2022/05/26 01:37:09;;;;;;;7.70;3.37;;;15.50;1.00;;;;;;5103341;27;20498;-76
2022/05/26 01:39:41;;;;;;;7.07;3.23;;;15.50;1.00;;;;;;5101922;27;20492;-77
2022/05/26 01:42:17;;;;;;;6.87;3.00;;;15.60;1.00;;;;;;5103971;27;20505;-76
2022/05/26 01:44:53;;;;;;;7.83;3.57;;;15.60;1.00;;;;;;5104790;27;20522;-76
2022/05/26 01:47:30;;;;;;;6.70;3.17;;;15.60;1.00;;;;;;5102040;27;20457;-76
2022/05/26 01:50:02;;;;;;;7.03;3.40;;;15.70;1.00;;;;;;5101389;27;20481;-76
2022/05/26 01:52:35;;;;;;;6.00;2.87;;;15.80;1.00;;;;;;5104353;27;20470;-76
2022/05/26 01:55:12;;;;;;;6.40;3.00;;;15.80;1.00;;;;;;5105646;27;20454;-77
2022/05/26 01:57:44;;;;;;;6.07;2.80;;;15.70;1.00;;;;;;5104342;27;20556;-76
2022/05/26 02:00:13;;;;;;;5.73;2.40;;;15.80;1.00;;;;;;5103603;27;20905;-77
2022/05/26 02:02:55;;;;;;;5.40;2.30;;;15.80;1.00;;;;;;5103939;27;20473;-76
2022/05/26 02:05:24;;;;;;;5.43;2.07;;;15.90;1.00;;;;;;5107854;27;21859;-77
2022/05/26 02:07:55;;;;;;;5.43;2.20;;;16.00;1.00;;;;;;5105756;27;20847;-75
2022/05/26 02:10:33;;;;;;;6.80;2.33;;;16.00;1.00;;;;;;5103849;28;20502;-76
2022/05/26 02:13:06;;;;;;;7.40;1.97;;;16.00;1.00;;;;;;5103491;27;20534;-77
2022/05/26 02:15:39;;;;;;;5.50;2.30;;;16.10;1.00;;;;;;5102684;27;20445;-76
2022/05/26 02:18:12;;;;;;;5.87;2.20;;;16.10;1.00;;;;;;5101760;27;20616;-76
2022/05/26 02:20:44;;;;;;;5.70;2.03;;;16.10;1.00;;;;;;5101439;27;20562;-76
2022/05/26 02:23:17;;;;;;;6.23;1.60;;;16.20;1.00;;;;;;5103401;27;20563;-76
2022/05/26 02:25:44;;;;;;;5.90;1.83;;;16.10;1.00;;;;;;5101256;27;20462;-77
2022/05/26 02:28:11;;;;;;;5.60;1.90;;;16.10;1.00;;;;;;5103162;27;21048;-75
2022/05/26 02:30:42;;;;;;;5.17;1.83;;;16.10;1.00;;;;;;5099579;27;20486;-75
2022/05/26 02:33:12;;;;;;;5.23;1.90;;;16.10;1.00;;;;;;5100480;27;20538;-75
2022/05/26 02:35:41;;;;;;;7.13;2.57;;;16.10;1.00;;;;;;5102158;27;20458;-76
2022/05/26 02:38:11;;;;;;;5.20;1.70;;;16.00;1.00;;;;;;5100425;27;20554;-76
2022/05/26 02:40:37;;;;;;;5.80;1.80;;;16.00;1.00;;;;;;5098405;27;20525;-75
2022/05/26 02:43:09;;;;;;;6.17;1.53;;;16.00;1.00;;;;;;5102438;27;20473;-75
2022/05/26 02:45:43;;;;;;;5.20;1.73;;;16.00;1.00;;;;;;5100603;27;20450;-76
2022/05/26 02:48:30;;;;;;;6.50;1.70;;;16.00;1.00;;;;;;5102232;27;20485;-75
2022/05/26 02:51:04;;;;;;;4.73;1.27;;;16.00;1.00;;;;;;5101925;27;20598;-76
2022/05/26 02:53:36;;;;;;;6.30;2.27;;;16.00;1.00;;;;;;5101953;27;20560;-76
2022/05/26 02:56:13;;;;;;;7.83;1.97;;;16.10;1.00;;;;;;5101223;27;21209;-76
2022/05/26 02:58:48;;;;;;;5.20;1.53;;;16.20;1.00;;;;;;5100966;27;20462;-76
2022/05/26 03:01:20;;;;;;;4.90;1.60;;;16.20;1.00;;;;;;5103119;27;20511;-76
2022/05/26 03:03:52;;;;;;;5.13;1.40;;;16.30;1.00;;;;;;5100724;27;20568;-75
2022/05/26 03:06:24;;;;;;;5.50;1.80;;;16.40;1.00;;;;;;5101939;27;20972;-76
2022/05/26 03:08:54;;;;;;;5.87;1.90;;;16.40;1.00;;;;;;5100826;27;20469;-77
2022/05/26 03:11:24;;;;;;;5.10;1.60;;;16.40;1.00;;;;;;5101939;27;20544;-76
2022/05/26 03:13:51;;;;;;;5.30;1.50;;;16.50;1.00;;;;;;5098437;27;20466;-76
2022/05/26 03:16:19;;;;;;;7.20;1.67;;;16.50;1.00;;;;;;5102150;27;20490;-76
2022/05/26 03:18:46;;;;;;;5.80;1.70;;;16.50;1.00;;;;;;5099253;27;20886;-76
2022/05/26 03:21:14;;;;;;;5.20;1.60;;;16.50;1.00;;;;;;5100528;27;20465;-75
2022/05/26 03:23:41;;;;;;;5.10;1.67;;;16.60;1.00;;;;;;5104026;27;20505;-76
2022/05/26 03:26:09;;;;;;;5.90;1.80;;;16.60;1.00;;;;;;5100344;27;20543;-75
2022/05/26 03:28:36;;;;;;;5.77;1.80;;;16.70;1.00;;;;;;5101001;27;21118;-76
2022/05/26 03:31:06;;;;;;;5.07;1.40;;;16.70;1.00;;;;;;5099714;27;20573;-77
2022/05/26 03:40:46;;;;;;;7.80;2.00;;;16.80;1.00;;;;;;5101526;27;20502;-76
2022/05/26 03:41:50;;;;;;;6.40;1.40;;;16.80;1.00;;;;;;5100154;27;20976;-76
2022/05/26 03:44:17;;;;;;;5.60;1.70;;;16.80;1.00;;;;;;5103256;27;20973;-76
2022/05/26 03:46:44;;;;;;;6.77;1.60;;;16.80;1.00;;;;;;5098901;27;20932;-76
2022/05/26 03:49:10;;;;;;;6.00;1.60;;;16.80;1.00;;;;;;5100951;27;20490;-76
2022/05/26 03:51:38;;;;;;;5.27;1.80;;;16.80;1.00;;;;;;5098230;28;20470;-76
2022/05/26 03:54:05;;;;;;;5.83;1.53;;;16.90;1.00;;;;;;5099559;27;20575;-76
2022/05/26 03:56:32;;;;;;;8.40;1.70;;;16.90;1.00;;;;;;5099925;27;20549;-76
2022/05/26 03:58:58;;;;;;;6.50;1.93;;;16.80;1.00;;;;;;5100243;27;20444;-75
2022/05/26 04:01:25;;;;;;;5.80;2.00;;;16.80;1.00;;;;;;5100093;27;20544;-75
2022/05/26 04:03:51;;;;;;;7.33;1.57;;;16.80;1.00;;;;;;5093143;27;20509;-75
2022/05/26 04:06:18;;;;;;;5.33;1.70;;;16.80;1.00;;;;;;5097767;27;20534;-74
2022/05/26 04:08:46;;;;;;;5.80;1.73;;;16.90;1.00;;;;;;5097814;27;20508;-74
2022/05/26 04:11:13;;;;;;;6.70;1.60;;;16.90;1.00;;;;;;5099595;27;20485;-74
2022/05/26 04:13:40;;;;;;;7.60;1.80;;;17.00;1.00;;;;;;5099477;27;20485;-75
2022/05/26 04:16:08;;;;;;;5.63;1.63;;;17.00;1.00;;;;;;5104495;28;20480;-75
2022/05/26 04:18:35;;;;;;;6.77;2.20;;;17.00;1.00;;;;;;5106200;27;20536;-75
2022/05/26 04:21:06;;;;;;;6.43;1.67;;;17.00;1.00;;;;;;5104184;27;20616;-75
2022/05/26 04:23:33;;;;;;;5.03;1.57;;;16.90;1.00;;;;;;5107118;27;20473;-76
2022/05/26 04:26:01;;;;;;;5.23;1.70;;;16.90;1.00;;;;;;5103729;27;20477;-75
2022/05/26 04:28:28;;;;;;;5.47;1.40;;;16.90;1.00;;;;;;5104466;27;20489;-75
2022/05/26 04:30:55;;;;;;;5.37;1.73;;;17.00;1.00;;;;;;5103628;27;21039;-75
2022/05/26 04:33:22;;;;;;;5.60;1.60;;;16.90;1.00;;;;;;5106056;28;21033;-75
2022/05/26 04:35:48;;;;;;;5.00;1.70;;;16.90;1.00;;;;;;5105097;27;20597;-76
2022/05/26 04:38:15;;;;;;;6.13;1.90;;;17.00;1.00;;;;;;5103196;27;20515;-76
2022/05/26 04:40:43;;;;;;;6.67;2.60;;;16.90;1.00;;;;;;5105461;27;20463;-74
2022/05/26 04:43:12;;;;;;;5.37;1.63;;;17.00;1.00;;;;;;5104741;28;20991;-77
2022/05/26 04:45:39;;;;;;;6.40;2.00;;;16.90;1.00;;;;;;5104741;27;20489;-76
2022/05/26 04:48:06;;;;;;;5.40;1.90;;;16.90;1.00;;;;;;5102170;27;21020;-77
2022/05/26 04:50:34;;;;;;;6.43;1.93;;;16.90;1.00;;;;;;5106489;27;20868;-76
2022/05/26 04:53:01;;;;;;;5.80;2.30;;;16.90;1.00;;;;;;5102250;27;20556;-77
2022/05/26 04:55:27;;;;;;;5.90;1.90;;;16.90;1.00;;;;;;5109573;27;20454;-76
2022/05/26 04:57:54;;;;;;;5.30;2.10;;;16.90;1.00;;;;;;5103569;27;20492;-77
2022/05/26 05:00:22;;;;;;;5.00;1.93;;;16.90;1.00;;;;;;5105770;27;20485;-76
2022/05/26 05:02:49;;;;;;;6.80;2.47;;;17.00;1.00;;;;;;5105598;27;20497;-76
2022/05/26 05:05:15;;;;;;;6.13;2.40;;;17.10;1.00;;;;;;5104335;27;20413;-77
2022/05/26 05:07:42;;;;;;;5.43;2.60;;;17.10;1.00;;;;;;5107298;27;20512;-76
2022/05/26 05:10:09;;;;;;;5.53;2.20;;;17.20;1.00;;;;;;5103573;28;20492;-76
2022/05/26 05:12:36;;;;;;;6.10;2.33;;;17.30;1.00;;;;;;5105793;27;20899;-75
2022/05/26 05:15:08;;;;;;;6.87;2.60;;;17.30;1.00;;;;;;5102284;27;20454;-76
2022/05/26 05:17:36;;;;;;;6.70;2.73;;;17.30;1.00;;;;;;5103974;27;20482;-76
2022/05/26 05:20:03;;;;;;;6.77;2.43;;;17.20;1.00;;;;;;5102703;27;20938;-77
2022/05/26 05:22:35;;;;;;;6.47;2.60;;;17.10;1.00;;;;;;5104211;28;20496;-76
2022/05/26 05:25:05;;;;;;;5.93;2.70;;;17.00;1.00;;;;;;5098331;27;20510;-76
2022/05/26 05:27:36;;;;;;;7.00;2.60;;;17.00;1.00;;;;;;5101700;27;20554;-76
2022/05/26 05:30:07;;;;;;;6.40;3.00;;;17.00;1.00;;;;;;5104212;28;21385;-75
2022/05/26 05:32:42;;;;;;;8.90;2.40;;;16.90;1.00;;;;;;5103860;27;21334;-75
2022/05/26 05:35:14;;;;;;;6.00;2.77;;;16.90;1.00;;;;;;5102079;27;20548;-75
2022/05/26 05:37:41;;;;;;;5.93;2.47;;;16.90;1.00;;;;;;5101911;28;20457;-75
2022/05/26 05:40:09;;;;;;;6.10;2.23;;;16.90;1.00;;;;;;5099940;27;20873;-76
2022/05/26 05:42:36;;;;;;;8.20;3.00;;;17.00;1.00;;;;;;5118575;27;20535;-76
2022/05/26 05:45:03;;;;;;;5.77;2.60;;;17.00;1.00;;;;;;5102496;27;20941;-75
2022/05/26 05:47:30;;;;;;;6.60;2.30;;;17.10;1.00;;;;;;5103988;27;20457;-76
2022/05/26 05:49:58;;;;;;;6.50;2.70;;;17.20;1.00;;;;;;5104426;27;20457;-76
2022/05/26 05:52:25;;;;;;;6.53;2.63;;;17.60;1.00;;;;;;5104577;27;20473;-76
2022/05/26 05:54:52;;;;;;;5.80;2.40;;;17.80;1.00;;;;;;5103342;27;20841;-76
2022/05/26 05:57:19;;;;;;;7.03;2.83;;;17.80;1.00;;;;;;5102194;27;20532;-76
2022/05/26 05:59:45;;;;;;;10.50;3.70;;;17.80;1.00;;;;;;5104392;27;20485;-75
2022/05/26 06:02:12;;;;;;;7.00;3.23;;;17.80;1.00;;;;;;5102900;27;20548;-75
2022/05/26 06:04:42;;;;;;;7.03;3.60;;;17.80;1.00;;;;;;5101627;27;20462;-75
2022/05/26 06:07:13;;;;;;;6.73;3.33;;;17.90;1.00;;;;;;5104106;27;21088;-77
2022/05/26 06:09:40;;;;;;;8.50;3.03;;;18.10;1.00;;;;;;5104741;27;20464;-76
2022/05/26 06:12:08;;;;;;;6.73;3.47;;;18.10;1.00;;;;;;5100397;27;20497;-75
2022/05/26 06:14:35;;;;;;;7.77;2.77;;;18.10;1.00;;;;;;5101939;27;20520;-77
2022/05/26 06:17:01;;;;;;;7.97;3.13;;;18.00;1.00;;;;;;5101557;27;21037;-77
2022/05/26 06:19:28;;;;;;;6.83;3.70;;;18.00;1.00;;;;;;5107204;27;20855;-76
2022/05/26 06:21:55;;;;;;;5.70;3.00;;;18.00;1.00;;;;;;5102533;27;20466;-76
2022/05/26 06:24:25;;;;;;;8.10;3.40;;;18.00;1.00;;;;;;5102423;27;21051;-77
2022/05/26 06:26:52;;;;;;;5.90;3.23;;;18.10;1.00;;;;;;5102849;27;20873;-76
2022/05/26 06:37:41;;;;;;;6.13;3.67;;;18.00;1.00;;;;;;5070972;27;20462;-77
2022/05/26 06:40:14;;;;;;;8.93;4.07;;;18.20;1.00;;;;;;5104569;27;20825;-76
2022/05/26 06:42:40;;;;;;;8.50;3.90;;;18.10;1.00;;;;;;5102614;27;20852;-77
2022/05/26 06:45:08;;;;;;;5.93;3.73;;;18.00;1.00;;;;;;5104632;27;20935;-76
2022/05/26 06:47:34;;;;;;;9.20;3.77;;;18.00;1.00;;;;;;5100935;27;21390;-77
2022/05/26 06:50:02;;;;;;;5.77;3.20;;;18.10;1.00;;;;;;5101988;27;20802;-76
2022/05/26 06:52:29;;;;;;;7.30;3.60;;;18.20;1.00;;;;;;5103858;27;20484;-76
2022/05/26 06:54:56;;;;;;;6.30;3.37;;;18.40;1.00;;;;;;5106015;27;20471;-77
2022/05/26 06:57:24;;;;;;;7.10;4.17;;;18.50;1.00;;;;;;5104137;27;20970;-75
2022/05/26 06:59:51;;;;;;;7.37;3.50;;;18.50;1.00;;;;;;5103388;27;20485;-76
2022/05/26 07:02:18;;;;;;;8.67;3.60;;;18.50;1.00;;;;;;5096585;27;20920;-76
2022/05/26 07:04:44;;;;;;;7.20;4.10;;;18.50;1.00;;;;;;5100462;27;20579;-77
2022/05/26 07:07:13;;;;;;;6.10;3.53;;;18.40;1.00;;;;;;5103923;27;20454;-76
2022/05/26 07:09:40;;;;;;;8.43;4.10;;;18.40;1.00;;;;;;5099750;28;20562;-76
2022/05/26 07:12:07;;;;;;;6.27;3.80;;;18.20;1.00;;;;;;5100417;27;20466;-75
2022/05/26 07:14:36;;;;;;;7.00;3.87;;;18.00;1.00;;;;;;5103444;27;20475;-76
2022/05/26 07:17:03;;;;;;;8.10;4.40;;;17.90;1.00;;;;;;5100306;28;21207;-76
2022/05/26 07:19:33;;;;;;;6.40;4.27;;;17.50;1.00;;;;;;5103365;27;20454;-75
2022/05/26 07:22:00;;;;;;;8.50;4.53;;;17.20;1.00;;;;;;5101226;27;21057;-75
2022/05/26 07:24:27;;;;;;;6.40;4.20;;;17.10;1.00;;;;;;5101581;27;20558;-76
2022/05/26 07:26:53;;;;;;;7.27;4.40;;;17.10;1.00;;;;;;5100449;27;20469;-76
2022/05/26 07:29:20;;;;;;;6.97;4.53;;;17.00;1.00;;;;;;5101622;28;20454;-76
2022/05/26 07:31:48;;;;;;;8.07;4.93;;;17.00;1.00;;;;;;5099484;27;21099;-75
2022/05/26 07:34:15;;;;;;;8.17;4.77;;;17.00;1.00;;;;;;5103102;27;20454;-75
2022/05/26 07:42:13;;;;;;;8.27;5.70;;;16.80;1.00;;;;;;5100927;27;20454;-76
2022/05/26 07:44:42;;;;;;;9.77;6.23;;;16.70;1.00;;;;;;5102561;27;20507;-76
2022/05/26 07:47:11;;;;;;;8.60;6.80;;;16.60;1.00;;;;;;5094853;27;20520;-75
2022/05/26 07:49:41;;;;;;;8.87;7.10;;;16.50;1.00;;;;;;5101618;27;20659;-75
2022/05/26 07:52:09;;;;;;;9.37;7.97;;;16.40;1.00;;;;;;5102679;27;20464;-75
2022/05/26 07:54:36;;;;;;;9.63;7.93;;;16.20;1.00;;;;;;5099877;28;20462;-76
2022/05/26 07:57:03;;;;;;;9.80;8.80;;;16.10;1.00;;;;;;5101966;27;20461;-76
2022/05/26 07:59:30;;;;;;;8.00;7.03;;;16.00;1.00;;;;;;5101875;27;20512;-77
2022/05/26 08:01:58;;;;;;;8.97;6.73;;;16.00;1.00;;;;;;5101506;27;20478;-76
2022/05/26 08:04:25;;;;;;;7.90;7.03;;;15.90;1.00;;;;;;5102413;27;20891;-75
2022/05/26 08:06:53;;;;;;;8.73;7.10;;;16.10;1.00;;;;;;5100807;27;20469;-74
2022/05/26 08:09:22;;;;;;;8.90;7.17;;;16.20;1.00;;;;;;5104174;27;20519;-75
2022/05/26 08:11:49;;;;;;;9.43;6.33;;;16.40;1.00;;;;;;5099954;27;20472;-75
2022/05/26 08:14:15;;;;;;;8.83;6.70;;;16.60;1.00;;;;;;5100959;27;20439;-75
2022/05/26 08:16:43;;;;;;;7.77;6.77;;;16.80;1.00;;;;;;5099000;27;20587;-77
2022/05/26 08:19:09;;;;;;;8.13;6.23;;;17.00;1.00;;;;;;5104500;28;21201;-77
2022/05/26 08:21:38;;;;;;;6.87;6.03;;;17.20;1.00;;;;;;5099752;27;20494;-77
2022/05/26 08:24:05;;;;;;;7.43;5.43;;;17.40;1.00;;;;;;5101490;27;20918;-76
2022/05/26 08:26:33;;;;;;;11.60;5.20;;;17.50;1.00;;;;;;5102811;28;20446;-76
2022/05/26 08:28:59;;;;;;;7.70;4.70;;;17.70;1.00;;;;;;5092851;27;20465;-76
2022/05/26 08:31:27;;;;;;;6.33;4.80;;;17.90;1.00;;;;;;5100478;27;20527;-77
2022/05/26 08:33:54;;;;;;;6.43;4.40;;;18.10;1.00;;;;;;5100267;27;20921;-77
2022/05/26 08:36:23;;;;;;;6.40;4.57;;;18.30;1.00;;;;;;5099895;28;20473;-77
2022/05/26 08:38:52;;;;;;;6.20;3.90;;;18.50;1.00;;;;;;5101317;27;20510;-75
2022/05/26 08:41:22;;;;;;;7.50;4.37;;;18.70;1.00;;;;;;5100914;27;20493;-75
2022/05/26 08:43:55;;;;;;;7.30;4.17;;;18.90;1.00;;;;;;5101934;27;20437;-76
2022/05/26 08:46:22;;;;;;;6.50;3.53;;;18.90;1.00;;;;;;5099583;27;21346;-75
2022/05/26 08:49:00;;;;;;;7.97;3.67;;;18.80;1.00;;;;;;5104141;27;20965;-76
2022/05/26 08:51:37;;;;;;;6.23;4.50;;;18.70;1.00;;;;;;5099379;27;20543;-76
2022/05/26 08:54:09;;;;;;;7.23;2.97;;;18.70;1.00;;;;;;5099135;27;20470;-75
2022/05/26 08:56:35;;;;;;;5.57;2.57;;;18.80;1.00;;;;;;5103231;27;20473;-76
2022/05/26 08:59:08;;;;;;;7.80;2.77;;;19.00;1.00;;;;;;5100193;27;20501;-76
2022/05/26 09:01:35;;;;;;;5.30;2.40;;;19.20;1.00;;;;;;5098084;27;20540;-76
2022/05/26 09:04:02;;;;;;;5.93;2.07;;;19.30;1.00;;;;;;5101954;27;20454;-76
2022/05/26 09:06:30;;;;;;;6.17;2.13;;;19.30;1.00;;;;;;5106016;27;20570;-77
2022/05/26 09:14:38;;;;;;;7.00;1.90;;;20.00;1.00;;;;;;5079487;27;20456;-76
2022/05/26 09:17:06;;;;;;;6.97;2.00;;;20.00;1.00;;;;;;5104042;27;20956;-76
2022/05/26 09:19:48;;;;;;;6.53;2.07;;;20.30;1.00;;;;;;5102125;27;20453;-76
2022/05/26 09:22:26;;;;;;;5.43;2.10;;;20.60;1.00;;;;;;5105133;27;20517;-76
2022/05/26 09:24:53;;;;;;;6.87;2.40;;;20.80;1.00;;;;;;5102744;27;20481;-76
2022/05/26 09:27:28;;;;;;;7.40;2.17;;;20.90;1.00;;;;;;5104073;27;20469;-77
2022/05/26 09:29:55;;;;;;;5.70;1.43;;;21.30;1.00;;;;;;5102161;27;20645;-77
2022/05/26 09:32:31;;;;;;;5.40;1.40;;;21.80;1.00;;;;;;5101859;27;20992;-77
2022/05/26 09:35:05;;;;;;;5.40;1.43;;;22.40;1.00;;;;;;5102041;28;21264;-76
2022/05/26 09:37:39;;;;;;;6.40;1.57;;;22.90;1.00;;;;;;5099782;27;21152;-76
2022/05/26 09:40:17;;;;;;;6.60;1.50;;;22.90;1.00;;;;;;5103837;28;20465;-76
2022/05/26 09:42:58;;;;;;;6.90;1.90;;;22.80;1.00;;;;;;5101851;27;20556;-75
2022/05/26 09:45:25;;;;;;;6.50;1.77;;;22.90;1.00;;;;;;5103742;27;20485;-76
2022/05/26 09:47:54;;;;;;;5.93;1.83;;;22.60;1.00;;;;;;5100354;27;20889;-77
2022/05/26 09:50:48;;;;;;;5.87;1.50;;;22.10;1.00;;;;;;5105769;27;20450;-77
2022/05/26 09:53:28;;;;;;;8.00;2.30;;;21.70;1.00;;;;;;5102371;27;20442;-78
2022/05/26 09:55:55;;;;;;;6.70;1.63;;;21.40;1.00;;;;;;5103825;27;20479;-77
2022/05/26 09:58:29;;;;;;;7.00;2.00;;;22.90;1.00;;;;;;5102157;27;21114;-77
2022/05/26 10:00:58;;;;;;;7.10;1.40;;;24.60;1.00;;;;;;5099002;27;20902;-77
2022/05/26 10:03:36;;;;;;;6.50;1.80;;;25.00;1.00;;;;;;5089700;27;20985;-76
2022/05/26 10:06:15;;;;;;;6.43;1.80;;;25.10;1.00;;;;;;5107114;27;20597;-77
2022/05/26 10:08:50;;;;;;;8.00;1.43;;;24.60;1.00;;;;;;5095264;27;20556;-78
2022/05/26 10:11:27;;;;;;;5.50;1.50;;;24.60;1.00;;;;;;5102362;27;20901;-76
2022/05/26 10:14:08;;;;;;;7.70;2.00;;;25.50;1.00;;;;;;5102951;27;21048;-76
2022/05/26 10:16:43;;;;;;;5.40;1.90;;;25.50;1.00;;;;;;5101113;27;20484;-76
2022/05/26 10:19:21;;;;;;;6.70;1.80;;;24.70;1.00;;;;;;5102405;28;20457;-76
2022/05/26 10:22:01;;;;;;;5.70;1.40;;;25.10;1.00;;;;;;5103798;27;20465;-75
2022/05/26 10:24:58;;;;;;;6.80;1.70;;;27.10;1.00;;;;;;5102921;27;21381;-75
2022/05/26 10:27:48;;;;;;;6.50;1.93;;;26.80;1.00;;;;;;5101639;27;20477;-75
2022/05/26 10:30:28;;;;;;;5.90;1.87;;;24.70;1.00;;;;;;5098803;28;20489;-75
2022/05/26 10:33:11;;;;;;;7.17;1.93;;;23.10;1.00;;;;;;5100387;27;20470;-75
2022/05/26 10:35:47;;;;;;;5.83;1.87;;;22.20;1.00;;;;;;5101811;27;20505;-76
2022/05/26 10:38:27;;;;;;;6.93;2.10;;;21.60;1.00;;;;;;5099278;28;20494;-76
2022/05/26 10:41:01;;;;;;;6.33;2.10;;;21.30;1.00;;;;;;5105162;27;21002;-76
2022/05/26 10:43:32;;;;;;;8.57;2.17;;;21.20;1.00;;;;;;5103438;27;20555;-75
2022/05/26 10:46:03;;;;;;;6.97;2.10;;;20.90;1.00;;;;;;5105154;27;20552;-76
2022/05/26 10:48:36;;;;;;;6.20;2.47;;;20.80;1.00;;;;;;5100986;27;20511;-75
2022/05/26 10:51:09;;;;;;;6.53;2.00;;;20.90;1.00;;;;;;5101098;27;20534;-76
2022/05/26 10:53:42;;;;;;;6.93;2.47;;;20.80;1.00;;;;;;5090854;27;20501;-76
2022/05/26 10:56:19;;;;;;;6.93;2.40;;;20.70;1.00;;;;;;5097491;27;20544;-76
2022/05/26 10:58:49;;;;;;;7.53;2.47;;;20.70;1.00;;;;;;5098904;27;20469;-77
2022/05/26 11:01:28;;;;;;;7.90;2.60;;;21.50;1.00;;;;;;5101000;27;20462;-77
2022/05/26 11:03:59;;;;;;;6.63;3.27;;;22.00;1.00;;;;;;5104184;27;20440;-76
2022/05/26 11:06:30;;;;;;;7.23;2.20;;;22.30;1.00;;;;;;5104301;28;20508;-76
2022/05/26 11:09:07;;;;;;;6.30;2.47;;;22.80;1.00;;;;;;5101131;27;20449;-76
2022/05/26 11:11:37;;;;;;;8.90;2.80;;;22.50;1.00;;;;;;5102882;27;20459;-76
2022/05/26 11:14:09;;;;;;;9.43;2.60;;;22.10;1.00;;;;;;5099824;27;20507;-76
2022/05/26 11:19:35;;;;;;;7.63;2.20;;;23.30;1.00;;;;;;5088291;28;20499;-76
2022/05/26 11:22:02;;;;;;;7.57;2.33;;;24.30;1.00;;;;;;5099923;27;20554;-77
2022/05/26 11:24:29;;;;;;;7.80;2.20;;;25.60;1.00;;;;;;5101388;27;20507;-77
2022/05/26 11:27:02;;;;;;;6.83;2.40;;;25.40;1.00;;;;;;5099888;27;20461;-77
2022/05/26 11:29:32;;;;;;;6.10;2.37;;;24.70;1.00;;;;;;5102983;27;20475;-76
2022/05/26 11:38:01;;;;;;;7.10;3.00;;;23.00;1.00;;;;;;5066985;27;20469;-76
2022/05/26 11:40:33;;;;;;;6.70;2.67;;;23.20;1.00;;;;;;5101023;27;20446;-74
2022/05/26 11:43:01;;;;;;;7.73;2.80;;;23.90;1.00;;;;;;5099332;28;20531;-77
2022/05/26 11:45:31;;;;;;;6.80;2.60;;;24.20;1.00;;;;;;5101734;28;20458;-75
2022/05/26 11:48:04;;;;;;;6.90;2.80;;;23.80;1.00;;;;;;5101021;27;21218;-77
2022/05/26 11:50:57;;;;;;;9.33;4.80;;;23.00;1.00;;;;;;5104333;27;20453;-77
2022/05/26 11:53:40;;;;;;;9.60;3.10;;;22.20;1.00;;;;;;5101530;27;20458;-76
2022/05/26 11:56:39;;;;;;;6.60;2.53;;;21.70;1.00;;;;;;5103154;27;20464;-76
2022/05/26 11:59:43;;;;;;;8.60;2.90;;;21.40;1.00;;;;;;5097249;28;20473;-76
2022/05/26 12:02:32;;;;;;;10.23;2.40;;;21.10;1.00;;;;;;5101948;27;20505;-76
2022/05/26 12:05:43;;;;;;;9.00;2.50;;;20.90;1.00;;;;;;5099529;27;20496;-75
2022/05/26 12:08:30;;;;;;;10.30;2.70;;;21.00;1.00;;;;;;5102101;28;20450;-77
2022/05/26 12:10:59;;;;;;;6.53;2.30;;;23.90;1.00;;;;;;5100250;27;20545;-76
2022/05/26 12:13:33;;;;;;;9.30;2.30;;;26.80;1.00;;;;;;5103320;27;20466;-77
2022/05/26 12:16:28;;;;;;;7.10;2.00;;;28.90;1.00;;;;;;5100779;27;20551;-76
2022/05/26 12:18:58;;;;;;;6.83;2.40;;;30.20;1.00;;;;;;5097152;27;20410;-77
2022/05/26 12:22:12;;;;;;;5.87;2.40;;;28.80;1.00;;;;;;5099758;27;20478;-76
2022/05/26 12:25:14;;;;;;;7.23;2.77;;;27.00;1.00;;;;;;5074133;27;20567;-77
2022/05/26 12:28:03;;;;;;;10.27;2.33;;;26.20;1.00;;;;;;5101165;27;20466;-76
2022/05/26 12:30:39;;;;;;;6.40;1.90;;;26.00;1.00;;;;;;5100949;27;20504;-77
2022/05/26 12:33:30;;;;;;;9.97;2.50;;;26.90;1.00;;;;;;5102891;28;20480;-76
2022/05/26 12:36:04;;;;;;;6.47;2.10;;;27.50;1.00;;;;;;5100880;27;20475;-77
2022/05/26 12:38:40;;;;;;;6.97;1.80;;;27.90;1.00;;;;;;5106338;27;20526;-76
2022/05/26 12:41:13;;;;;;;7.40;2.20;;;29.10;1.00;;;;;;5106883;27;20449;-77
2022/05/26 12:43:55;;;;;;;6.63;1.80;;;30.20;1.00;;;;;;5101899;27;20482;-77
2022/05/26 12:46:42;;;;;;;7.20;2.20;;;29.40;1.00;;;;;;5106505;27;20558;-77
2022/05/26 12:49:24;;;;;;;6.17;2.30;;;27.30;1.00;;;;;;5102916;28;21351;-76
2022/05/26 12:52:07;;;;;;;7.80;1.80;;;25.90;1.00;;;;;;5105560;27;20472;-76
2022/05/26 12:54:43;;;;;;;7.80;3.00;;;27.10;1.00;;;;;;5106176;27;20972;-76
2022/05/26 12:57:15;;;;;;;6.70;2.50;;;27.50;1.00;;;;;;5105074;27;20949;-77
2022/05/26 12:59:43;;;;;;;6.03;1.80;;;27.40;1.00;;;;;;5103233;27;20476;-77
2022/05/26 13:02:13;;;;;;;8.37;2.20;;;27.00;1.00;;;;;;5103301;27;20464;-77
2022/05/26 13:04:40;;;;;;;7.37;2.20;;;28.20;1.00;;;;;;5102657;27;20476;-76
2022/05/26 13:07:10;;;;;;;8.37;2.13;;;29.70;1.00;;;;;;5102891;27;20462;-76
2022/05/26 13:09:43;;;;;;;7.10;2.50;;;30.10;1.00;;;;;;5100609;27;20489;-77
2022/05/26 13:12:10;;;;;;;6.67;2.10;;;28.70;1.00;;;;;;5100193;27;21018;-77
2022/05/26 13:14:46;;;;;;;7.60;2.07;;;27.00;1.00;;;;;;5102522;27;20565;-76
2022/05/26 13:17:16;;;;;;;8.93;2.80;;;25.30;1.00;;;;;;5107325;27;20941;-76
2022/05/26 13:19:44;;;;;;;12.77;3.00;;;24.20;1.00;;;;;;5102518;27;20461;-76
2022/05/26 13:22:14;;;;;;;9.43;2.40;;;23.40;1.00;;;;;;5105043;27;20508;-77
2022/05/26 13:24:51;;;;;;;8.20;2.10;;;22.90;1.00;;;;;;5103675;27;20489;-76
2022/05/26 13:27:18;;;;;;;8.93;2.20;;;22.50;1.00;;;;;;5103995;28;20514;-76
2022/05/26 13:29:49;;;;;;;12.63;2.80;;;22.20;1.00;;;;;;5100662;27;20527;-76
2022/05/26 13:35:16;;;;;;;8.10;2.23;;;25.40;1.00;;;;;;5103987;27;20976;-77
2022/05/26 13:37:44;;;;;;;6.83;2.10;;;27.80;1.00;;;;;;5111274;27;20432;-77
2022/05/26 13:40:14;;;;;;;8.80;2.30;;;27.70;1.00;;;;;;5102199;27;20527;-77
2022/05/26 13:42:45;;;;;;;6.33;2.10;;;26.30;1.00;;;;;;5099748;27;20471;-76
2022/05/26 13:45:22;;;;;;;7.53;2.10;;;24.60;1.00;;;;;;5100912;27;20470;-76
2022/05/26 13:47:51;;;;;;;6.77;2.20;;;23.70;1.00;;;;;;5098702;27;20539;-76
2022/05/26 13:50:28;;;;;;;7.57;2.03;;;23.00;1.00;;;;;;5101359;27;20450;-76
2022/05/26 13:52:55;;;;;;;8.17;3.00;;;22.60;1.00;;;;;;5101214;27;21474;-77
2022/05/26 13:55:24;;;;;;;7.63;1.83;;;22.50;1.00;;;;;;5104516;27;20522;-76
2022/05/26 13:57:53;;;;;;;6.90;2.13;;;22.50;1.00;;;;;;5103898;27;20562;-76